sensor_id;sensor_type;location;lat;lon;timestamp;pressure;altitude;pressure_sealevel;temperature;humidity
53868;BME280;41577;47.470;19.080;2023-09-30T00:00:03;100721.19;;;15.85;100.00
53868;BME280;41577;47.470;19.080;2023-09-30T00:00:21;100712.69;;;15.82;100.00
53868;BME280;41577;47.470;19.080;2023-09-30T00:00:33;100712.69;;;15.82;100.00
53868;BME280;41577;47.470;19.080;2023-09-30T00:00:46;100711.88;;;15.81;100.00
53868;BME280;41577;47.470;19.080;2023-09-30T00:00:59;100697.00;;;15.72;100.00
53868;BME280;41577;47.470;19.080;2023-09-30T00:01:11;100697.19;;;15.71;100.00
53868;BME280;41577;47.470;19.080;2023-09-30T00:01:23;100701.75;;;15.77;100.00
53868;BME280;41577;47.470;19.080;2023-09-30T00:01:36;100705.06;;;15.79;100.00
53868;BME280;41577;47.470;19.080;2023-09-30T00:01:48;100718.69;;;15.84;100.00
53868;BME280;41577;47.470;19.080;2023-09-30T00:02:01;100714.38;;;15.83;100.00
53868;BME280;41577;47.470;19.080;2023-09-30T00:02:14;100718.91;;;15.82;100.00
53868;BME280;41577;47.470;19.080;2023-09-30T00:02:26;100693.88;;;15.75;100.00
53868;BME280;41577;47.470;19.080;2023-09-30T00:02:39;100707.31;;;15.82;100.00
53868;BME280;41577;47.470;19.080;2023-09-30T00:02:51;100706.31;;;15.76;100.00
53868;BME280;41577;47.470;19.080;2023-09-30T00:03:10;100707.91;;;15.84;100.00
53868;BME280;41577;47.470;19.080;2023-09-30T00:03:30;100708.38;;;15.81;100.00
53868;BME280;41577;47.470;19.080;2023-09-30T00:03:43;100698.00;;;15.78;100.00
53868;BME280;41577;47.470;19.080;2023-09-30T00:03:55;100710.63;;;15.84;100.00
53868;BME280;41577;47.470;19.080;2023-09-30T00:04:08;100700.47;;;15.79;100.00
53868;BME280;41577;47.470;19.080;2023-09-30T00:04:21;100711.44;;;15.84;100.00
53868;BME280;41577;47.470;19.080;2023-09-30T00:04:33;100706.28;;;15.83;100.00
53868;BME280;41577;47.470;19.080;2023-09-30T00:04:51;100704.44;;;15.77;100.00
53868;BME280;41577;47.470;19.080;2023-09-30T00:05:19;100705.84;;;15.86;100.00
53868;BME280;41577;47.470;19.080;2023-09-30T00:05:31;100705.84;;;15.86;100.00
53868;BME280;41577;47.470;19.080;2023-09-30T00:05:43;100712.25;;;15.85;100.00
53868;BME280;41577;47.470;19.080;2023-09-30T00:05:55;100709.56;;;15.85;100.00
53868;BME280;41577;47.470;19.080;2023-09-30T00:06:07;100709.78;;;15.83;100.00
53868;BME280;41577;47.470;19.080;2023-09-30T00:06:19;100711.22;;;15.86;100.00
53868;BME280;41577;47.470;19.080;2023-09-30T00:06:31;100708.75;;;15.84;100.00
53868;BME280;41577;47.470;19.080;2023-09-30T00:06:43;100706.88;;;15.85;100.00
53868;BME280;41577;47.470;19.080;2023-09-30T00:06:54;100708.13;;;15.82;100.00
53868;BME280;41577;47.470;19.080;2023-09-30T00:07:06;100715.56;;;15.87;100.00
53868;BME280;41577;47.470;19.080;2023-09-30T00:07:18;100699.84;;;15.84;100.00
53868;BME280;41577;47.470;19.080;2023-09-30T00:07:30;100713.72;;;15.87;100.00
53868;BME280;41577;47.470;19.080;2023-09-30T00:07:42;100712.06;;;15.86;100.00
53868;BME280;41577;47.470;19.080;2023-09-30T00:07:54;100703.34;;;15.84;100.00
53868;BME280;41577;47.470;19.080;2023-09-30T00:08:06;100703.16;;;15.86;100.00
53868;BME280;41577;47.470;19.080;2023-09-30T00:08:17;100708.53;;;15.86;100.00
53868;BME280;41577;47.470;19.080;2023-09-30T00:08:29;100709.34;;;15.86;100.00
53868;BME280;41577;47.470;19.080;2023-09-30T00:08:41;100709.34;;;15.86;100.00
53868;BME280;41577;47.470;19.080;2023-09-30T00:08:53;100711.03;;;15.87;100.00
53868;BME280;41577;47.470;19.080;2023-09-30T00:09:04;100703.97;;;15.86;100.00
53868;BME280;41577;47.470;19.080;2023-09-30T00:09:16;100708.53;;;15.86;100.00
53868;BME280;41577;47.470;19.080;2023-09-30T00:09:28;100700.47;;;15.86;100.00
53868;BME280;41577;47.470;19.080;2023-09-30T00:09:40;100713.72;;;15.87;100.00
53868;BME280;41577;47.470;19.080;2023-09-30T00:09:52;100700.25;;;15.87;100.00
53868;BME280;41577;47.470;19.080;2023-09-30T00:10:05;100697.16;;;15.84;100.00
53868;BME280;41577;47.470;19.080;2023-09-30T00:10:17;100708.34;;;15.87;100.00
53868;BME280;41577;47.470;19.080;2023-09-30T00:10:28;100706.47;;;15.88;100.00
53868;BME280;41577;47.470;19.080;2023-09-30T00:10:40;100700.47;;;15.86;100.00
53868;BME280;41577;47.470;19.080;2023-09-30T00:10:52;100694.88;;;15.87;100.00
53868;BME280;41577;47.470;19.080;2023-09-30T00:11:04;100708.09;;;15.89;100.00
53868;BME280;41577;47.470;19.080;2023-09-30T00:11:16;100706.22;;;15.89;100.00
53868;BME280;41577;47.470;19.080;2023-09-30T00:11:28;100703.53;;;15.89;100.00
53868;BME280;41577;47.470;19.080;2023-09-30T00:11:40;100702.72;;;15.89;100.00
53868;BME280;41577;47.470;19.080;2023-09-30T00:11:52;100707.91;;;15.91;100.00
53868;BME280;41577;47.470;19.080;2023-09-30T00:12:04;100706.66;;;15.86;100.00
53868;BME280;41577;47.470;19.080;2023-09-30T00:12:16;100702.72;;;15.89;100.00
53868;BME280;41577;47.470;19.080;2023-09-30T00:12:28;100701.69;;;15.90;100.00
53868;BME280;41577;47.470;19.080;2023-09-30T00:12:40;100706.03;;;15.91;100.00
53868;BME280;41577;47.470;19.080;2023-09-30T00:12:51;100703.34;;;15.91;100.00
53868;BME280;41577;47.470;19.080;2023-09-30T00:13:03;100712.03;;;15.93;100.00
53868;BME280;41577;47.470;19.080;2023-09-30T00:13:15;100703.13;;;15.93;100.00
53868;BME280;41577;47.470;19.080;2023-09-30T00:13:27;100704.16;;;15.92;100.00
53868;BME280;41577;47.470;19.080;2023-09-30T00:13:39;100697.75;;;15.93;100.00
53868;BME280;41577;47.470;19.080;2023-09-30T00:13:51;100702.06;;;15.94;100.00
53868;BME280;41577;47.470;19.080;2023-09-30T00:14:03;100703.75;;;15.95;100.00
53868;BME280;41577;47.470;19.080;2023-09-30T00:14:15;100702.69;;;15.96;100.00
53868;BME280;41577;47.470;19.080;2023-09-30T00:14:27;100700.19;;;15.94;100.00
53868;BME280;41577;47.470;19.080;2023-09-30T00:14:38;100707.88;;;15.97;100.00
53868;BME280;41577;47.470;19.080;2023-09-30T00:14:50;100703.31;;;15.98;100.00
53868;BME280;41577;47.470;19.080;2023-09-30T00:15:02;100708.69;;;15.98;100.00
53868;BME280;41577;47.470;19.080;2023-09-30T00:15:14;100707.88;;;15.97;100.00
53868;BME280;41577;47.470;19.080;2023-09-30T00:15:26;100702.50;;;15.97;100.00
53868;BME280;41577;47.470;19.080;2023-09-30T00:15:38;100708.50;;;15.99;100.00
53868;BME280;41577;47.470;19.080;2023-09-30T00:15:50;100707.44;;;16.00;100.00
53868;BME280;41577;47.470;19.080;2023-09-30T00:16:02;100703.72;;;16.01;100.00
53868;BME280;41577;47.470;19.080;2023-09-30T00:16:14;100701.84;;;16.02;100.00
53868;BME280;41577;47.470;19.080;2023-09-30T00:16:26;100707.44;;;16.00;100.00
53868;BME280;41577;47.470;19.080;2023-09-30T00:16:38;100709.94;;;16.02;100.00
53868;BME280;41577;47.470;19.080;2023-09-30T00:16:50;100693.34;;;15.98;100.00
53868;BME280;41577;47.470;19.080;2023-09-30T00:17:02;100701.03;;;16.01;100.00
53868;BME280;41577;47.470;19.080;2023-09-30T00:17:14;100702.88;;;16.01;100.00
53868;BME280;41577;47.470;19.080;2023-09-30T00:17:26;100705.34;;;16.02;100.00
53868;BME280;41577;47.470;19.080;2023-09-30T00:17:38;100700.78;;;16.03;100.00
53868;BME280;41577;47.470;19.080;2023-09-30T00:17:50;100704.53;;;16.02;100.00
53868;BME280;41577;47.470;19.080;2023-09-30T00:18:02;100701.03;;;16.01;100.00
53868;BME280;41577;47.470;19.080;2023-09-30T00:18:14;100693.16;;;16.00;100.00
53868;BME280;41577;47.470;19.080;2023-09-30T00:18:26;100702.66;;;16.02;100.00
53868;BME280;41577;47.470;19.080;2023-09-30T00:18:38;100693.97;;;16.00;100.00
53868;BME280;41577;47.470;19.080;2023-09-30T00:18:50;100702.03;;;16.00;100.00
53868;BME280;41577;47.470;19.080;2023-09-30T00:19:02;100705.56;;;16.01;100.00
53868;BME280;41577;47.470;19.080;2023-09-30T00:19:14;100702.66;;;16.02;100.00
53868;BME280;41577;47.470;19.080;2023-09-30T00:19:25;100708.25;;;16.01;100.00
53868;BME280;41577;47.470;19.080;2023-09-30T00:19:37;100704.75;;;16.00;100.00
53868;BME280;41577;47.470;19.080;2023-09-30T00:19:51;100694.59;;;16.02;100.00
53868;BME280;41577;47.470;19.080;2023-09-30T00:20:03;100697.28;;;16.02;100.00
53868;BME280;41577;47.470;19.080;2023-09-30T00:20:15;100697.47;;;16.01;100.00
53868;BME280;41577;47.470;19.080;2023-09-30T00:20:27;100698.75;;;15.98;100.00
53868;BME280;41577;47.470;19.080;2023-09-30T00:20:39;100705.34;;;16.02;100.00
53868;BME280;41577;47.470;19.080;2023-09-30T00:20:50;100705.34;;;16.02;100.00
53868;BME280;41577;47.470;19.080;2023-09-30T00:21:02;100702.66;;;16.02;100.00
53868;BME280;41577;47.470;19.080;2023-09-30T00:21:16;100709.72;;;16.03;100.00
53868;BME280;41577;47.470;19.080;2023-09-30T00:21:28;100701.03;;;16.01;100.00
53868;BME280;41577;47.470;19.080;2023-09-30T00:21:40;100707.03;;;16.03;100.00
53868;BME280;41577;47.470;19.080;2023-09-30T00:21:52;100701.63;;;16.03;100.00
53868;BME280;41577;47.470;19.080;2023-09-30T00:22:04;100692.72;;;16.03;100.00
53868;BME280;41577;47.470;19.080;2023-09-30T00:22:16;100704.34;;;16.03;100.00
53868;BME280;41577;47.470;19.080;2023-09-30T00:22:28;100708.06;;;16.02;100.00
53868;BME280;41577;47.470;19.080;2023-09-30T00:22:40;100699.97;;;16.02;100.00
53868;BME280;41577;47.470;19.080;2023-09-30T00:22:51;100701.84;;;16.02;100.00
53868;BME280;41577;47.470;19.080;2023-09-30T00:23:03;100695.63;;;16.01;100.00
53868;BME280;41577;47.470;19.080;2023-09-30T00:23:15;100697.28;;;16.02;100.00
53868;BME280;41577;47.470;19.080;2023-09-30T00:23:27;100695.41;;;16.03;100.00
53868;BME280;41577;47.470;19.080;2023-09-30T00:23:39;100698.09;;;16.03;100.00
53868;BME280;41577;47.470;19.080;2023-09-30T00:23:50;100702.66;;;16.02;100.00
53868;BME280;41577;47.470;19.080;2023-09-30T00:24:03;100704.34;;;16.03;100.00
53868;BME280;41577;47.470;19.080;2023-09-30T00:24:15;100699.75;;;16.04;100.00
53868;BME280;41577;47.470;19.080;2023-09-30T00:24:26;100708.66;;;16.04;100.00
53868;BME280;41577;47.470;19.080;2023-09-30T00:24:38;100708.66;;;16.04;100.00
53868;BME280;41577;47.470;19.080;2023-09-30T00:24:50;100696.25;;;16.03;100.00
53868;BME280;41577;47.470;19.080;2023-09-30T00:25:03;100702.22;;;16.05;100.00
53868;BME280;41577;47.470;19.080;2023-09-30T00:25:15;100696.84;;;16.05;100.00
53868;BME280;41577;47.470;19.080;2023-09-30T00:25:27;100698.72;;;16.05;100.00
53868;BME280;41577;47.470;19.080;2023-09-30T00:25:39;100693.31;;;16.05;100.00
53868;BME280;41577;47.470;19.080;2023-09-30T00:25:51;100694.59;;;16.02;100.00
53868;BME280;41577;47.470;19.080;2023-09-30T00:26:03;100698.50;;;16.06;100.00
53868;BME280;41577;47.470;19.080;2023-09-30T00:26:14;100698.50;;;16.06;100.00
53868;BME280;41577;47.470;19.080;2023-09-30T00:26:30;100697.69;;;16.06;100.00
53868;BME280;41577;47.470;19.080;2023-09-30T00:26:42;100699.31;;;16.07;100.00
53868;BME280;41577;47.470;19.080;2023-09-30T00:26:54;100693.13;;;16.06;100.00
53868;BME280;41577;47.470;19.080;2023-09-30T00:27:05;100697.44;;;16.07;100.00
53868;BME280;41577;47.470;19.080;2023-09-30T00:27:18;100702.84;;;16.07;100.00
53868;BME280;41577;47.470;19.080;2023-09-30T00:27:30;100688.75;;;16.05;100.00
53868;BME280;41577;47.470;19.080;2023-09-30T00:27:42;100689.19;;;16.02;100.00
53868;BME280;41577;47.470;19.080;2023-09-30T00:27:54;100696.44;;;16.08;100.00
53868;BME280;41577;47.470;19.080;2023-09-30T00:28:05;100698.50;;;16.06;100.00
53868;BME280;41577;47.470;19.080;2023-09-30T00:28:17;100696.44;;;16.08;100.00
53868;BME280;41577;47.470;19.080;2023-09-30T00:28:29;100695.81;;;16.06;100.00
53868;BME280;41577;47.470;19.080;2023-09-30T00:28:41;100696.63;;;16.07;100.00
53868;BME280;41577;47.470;19.080;2023-09-30T00:28:53;100697.44;;;16.07;100.00
53868;BME280;41577;47.470;19.080;2023-09-30T00:29:06;100698.31;;;16.08;100.00
53868;BME280;41577;47.470;19.080;2023-09-30T00:29:18;100694.75;;;16.07;100.00
53868;BME280;41577;47.470;19.080;2023-09-30T00:29:29;100694.75;;;16.07;100.00
53868;BME280;41577;47.470;19.080;2023-09-30T00:29:41;100695.81;;;16.06;100.00
53868;BME280;41577;47.470;19.080;2023-09-30T00:29:53;100695.81;;;16.06;100.00
53868;BME280;41577;47.470;19.080;2023-09-30T00:30:06;100691.44;;;16.05;100.00
53868;BME280;41577;47.470;19.080;2023-09-30T00:30:18;100696.63;;;16.07;100.00
53868;BME280;41577;47.470;19.080;2023-09-30T00:30:30;100690.41;;;16.06;100.00
53868;BME280;41577;47.470;19.080;2023-09-30T00:30:45;100692.72;;;16.03;100.00
53868;BME280;41577;47.470;19.080;2023-09-30T00:30:57;100689.59;;;16.06;100.00
53868;BME280;41577;47.470;19.080;2023-09-30T00:31:09;100690.41;;;16.06;100.00
53868;BME280;41577;47.470;19.080;2023-09-30T00:31:21;100689.59;;;16.06;100.00
53868;BME280;41577;47.470;19.080;2023-09-30T00:31:33;100693.13;;;16.06;100.00
53868;BME280;41577;47.470;19.080;2023-09-30T00:31:45;100688.53;;;16.07;100.00
53868;BME280;41577;47.470;19.080;2023-09-30T00:31:56;100689.59;;;16.06;100.00
53868;BME280;41577;47.470;19.080;2023-09-30T00:32:08;100691.25;;;16.07;100.00
53868;BME280;41577;47.470;19.080;2023-09-30T00:32:21;100695.81;;;16.06;100.00
53868;BME280;41577;47.470;19.080;2023-09-30T00:32:33;100694.13;;;16.05;100.00
53868;BME280;41577;47.470;19.080;2023-09-30T00:32:45;100696.00;;;16.05;100.00
53868;BME280;41577;47.470;19.080;2023-09-30T00:32:57;100690.88;;;16.03;100.00
53868;BME280;41577;47.470;19.080;2023-09-30T00:33:08;100697.69;;;16.06;100.00
53868;BME280;41577;47.470;19.080;2023-09-30T00:33:20;100693.13;;;16.06;100.00
53868;BME280;41577;47.470;19.080;2023-09-30T00:33:32;100690.41;;;16.06;100.00
53868;BME280;41577;47.470;19.080;2023-09-30T00:33:45;100696.63;;;16.07;100.00
53868;BME280;41577;47.470;19.080;2023-09-30T00:33:57;100696.63;;;16.07;100.00
53868;BME280;41577;47.470;19.080;2023-09-30T00:34:09;100693.13;;;16.06;100.00
53868;BME280;41577;47.470;19.080;2023-09-30T00:34:20;100690.41;;;16.06;100.00
53868;BME280;41577;47.470;19.080;2023-09-30T00:34:33;100695.00;;;16.06;100.00
53868;BME280;41577;47.470;19.080;2023-09-30T00:34:45;100693.13;;;16.06;100.00
53868;BME280;41577;47.470;19.080;2023-09-30T00:34:58;100687.94;;;16.05;100.00
53868;BME280;41577;47.470;19.080;2023-09-30T00:35:10;100689.81;;;16.04;100.00
53868;BME280;41577;47.470;19.080;2023-09-30T00:35:22;100689.19;;;16.02;100.00
53868;BME280;41577;47.470;19.080;2023-09-30T00:35:34;100688.75;;;16.05;100.00
53868;BME280;41577;47.470;19.080;2023-09-30T00:35:46;100687.13;;;16.04;100.00
53868;BME280;41577;47.470;19.080;2023-09-30T00:35:58;100694.13;;;16.05;100.00
53868;BME280;41577;47.470;19.080;2023-09-30T00:36:10;100684.41;;;16.04;100.00
53868;BME280;41577;47.470;19.080;2023-09-30T00:36:23;100693.31;;;16.05;100.00
53868;BME280;41577;47.470;19.080;2023-09-30T00:36:35;100689.81;;;16.04;100.00
53868;BME280;41577;47.470;19.080;2023-09-30T00:36:47;100690.00;;;16.03;100.00
53868;BME280;41577;47.470;19.080;2023-09-30T00:36:59;100688.75;;;16.05;100.00
53868;BME280;41577;47.470;19.080;2023-09-30T00:37:10;100685.25;;;16.05;100.00
53868;BME280;41577;47.470;19.080;2023-09-30T00:37:22;100686.91;;;16.06;100.00
53868;BME280;41577;47.470;19.080;2023-09-30T00:37:34;100690.41;;;16.06;100.00
53868;BME280;41577;47.470;19.080;2023-09-30T00:37:46;100687.72;;;16.06;100.00
53868;BME280;41577;47.470;19.080;2023-09-30T00:37:58;100685.03;;;16.06;100.00
53868;BME280;41577;47.470;19.080;2023-09-30T00:38:10;100686.66;;;16.07;100.00
53868;BME280;41577;47.470;19.080;2023-09-30T00:38:22;100690.63;;;16.05;100.00
53868;BME280;41577;47.470;19.080;2023-09-30T00:38:34;100686.91;;;16.06;100.00
53868;BME280;41577;47.470;19.080;2023-09-30T00:38:46;100683.38;;;16.05;100.00
53868;BME280;41577;47.470;19.080;2023-09-30T00:38:57;100687.72;;;16.06;100.00
53868;BME280;41577;47.470;19.080;2023-09-30T00:39:10;100681.72;;;16.04;100.00
53868;BME280;41577;47.470;19.080;2023-09-30T00:39:22;100684.22;;;16.06;100.00
53868;BME280;41577;47.470;19.080;2023-09-30T00:39:33;100684.22;;;16.06;100.00
53868;BME280;41577;47.470;19.080;2023-09-30T00:39:45;100683.38;;;16.05;100.00
53868;BME280;41577;47.470;19.080;2023-09-30T00:39:57;100687.94;;;16.05;100.00
53868;BME280;41577;47.470;19.080;2023-09-30T00:40:10;100680.09;;;16.03;100.00
53868;BME280;41577;47.470;19.080;2023-09-30T00:40:22;100684.41;;;16.04;100.00
53868;BME280;41577;47.470;19.080;2023-09-30T00:40:34;100680.09;;;16.03;100.00
53868;BME280;41577;47.470;19.080;2023-09-30T00:40:49;100681.72;;;16.04;100.00
53868;BME280;41577;47.470;19.080;2023-09-30T00:41:01;100682.78;;;16.03;100.00
53868;BME280;41577;47.470;19.080;2023-09-30T00:41:12;100677.59;;;16.02;100.00
53868;BME280;41577;47.470;19.080;2023-09-30T00:41:24;100689.19;;;16.02;100.00
53868;BME280;41577;47.470;19.080;2023-09-30T00:41:38;100676.16;;;15.99;100.00
53868;BME280;41577;47.470;19.080;2023-09-30T00:41:51;100684.63;;;16.03;100.00
53868;BME280;41577;47.470;19.080;2023-09-30T00:42:03;100679.47;;;16.01;100.00
53868;BME280;41577;47.470;19.080;2023-09-30T00:42:15;100679.47;;;16.01;100.00
53868;BME280;41577;47.470;19.080;2023-09-30T00:42:27;100682.16;;;16.01;100.00
53868;BME280;41577;47.470;19.080;2023-09-30T00:42:39;100676.16;;;15.99;100.00
53868;BME280;41577;47.470;19.080;2023-09-30T00:42:52;100684.25;;;15.99;100.00
53868;BME280;41577;47.470;19.080;2023-09-30T00:43:04;100676.16;;;15.99;100.00
53868;BME280;41577;47.470;19.080;2023-09-30T00:43:20;100670.38;;;15.96;100.00
53868;BME280;41577;47.470;19.080;2023-09-30T00:43:32;100681.31;;;16.01;100.00
53868;BME280;41577;47.470;19.080;2023-09-30T00:43:45;100675.34;;;15.99;100.00
53868;BME280;41577;47.470;19.080;2023-09-30T00:43:57;100672.66;;;15.99;100.00
53868;BME280;41577;47.470;19.080;2023-09-30T00:44:09;100678.03;;;15.99;100.00
53868;BME280;41577;47.470;19.080;2023-09-30T00:44:21;100673.69;;;15.98;100.00
53868;BME280;41577;47.470;19.080;2023-09-30T00:44:33;100674.50;;;15.98;100.00
53868;BME280;41577;47.470;19.080;2023-09-30T00:44:45;100680.72;;;15.99;100.00
53868;BME280;41577;47.470;19.080;2023-09-30T00:44:56;100674.50;;;15.98;100.00
53868;BME280;41577;47.470;19.080;2023-09-30T00:45:09;100669.34;;;15.97;100.00
53868;BME280;41577;47.470;19.080;2023-09-30T00:45:23;100684.00;;;16.01;100.00
53868;BME280;41577;47.470;19.080;2023-09-30T00:45:35;100675.56;;;15.97;100.00
53868;BME280;41577;47.470;19.080;2023-09-30T00:45:51;100674.50;;;15.98;100.00
53868;BME280;41577;47.470;19.080;2023-09-30T00:46:13;100678.03;;;15.99;100.00
53868;BME280;41577;47.470;19.080;2023-09-30T00:46:29;100681.56;;;15.99;100.00
53868;BME280;41577;47.470;19.080;2023-09-30T00:46:42;100676.38;;;15.98;100.00
53868;BME280;41577;47.470;19.080;2023-09-30T00:46:54;100678.63;;;16.01;100.00
53868;BME280;41577;47.470;19.080;2023-09-30T00:47:06;100678.84;;;15.99;100.00
53868;BME280;41577;47.470;19.080;2023-09-30T00:47:18;100673.47;;;15.99;100.00
53868;BME280;41577;47.470;19.080;2023-09-30T00:47:31;100680.50;;;16.00;100.00
53868;BME280;41577;47.470;19.080;2023-09-30T00:47:43;100674.28;;;16.00;100.00
53868;BME280;41577;47.470;19.080;2023-09-30T00:47:55;100679.47;;;16.01;100.00
53868;BME280;41577;47.470;19.080;2023-09-30T00:48:07;100675.94;;;16.01;100.00
53868;BME280;41577;47.470;19.080;2023-09-30T00:48:19;100673.22;;;16.01;100.00
53868;BME280;41577;47.470;19.080;2023-09-30T00:48:32;100675.09;;;16.00;100.00
53868;BME280;41577;47.470;19.080;2023-09-30T00:48:45;100681.31;;;16.01;100.00
53868;BME280;41577;47.470;19.080;2023-09-30T00:48:59;100679.47;;;16.01;100.00
53868;BME280;41577;47.470;19.080;2023-09-30T00:49:13;100679.47;;;16.01;100.00
53868;BME280;41577;47.470;19.080;2023-09-30T00:49:26;100674.91;;;16.02;100.00
53868;BME280;41577;47.470;19.080;2023-09-30T00:49:38;100677.59;;;16.02;100.00
53868;BME280;41577;47.470;19.080;2023-09-30T00:49:50;100666.25;;;15.93;100.00
53868;BME280;41577;47.470;19.080;2023-09-30T00:50:04;100678.41;;;16.02;100.00
53868;BME280;41577;47.470;19.080;2023-09-30T00:50:19;100678.41;;;16.02;100.00
53868;BME280;41577;47.470;19.080;2023-09-30T00:50:30;100683.81;;;16.02;100.00
53868;BME280;41577;47.470;19.080;2023-09-30T00:50:44;100677.59;;;16.02;100.00
53868;BME280;41577;47.470;19.080;2023-09-30T00:50:55;100678.41;;;16.02;100.00
53868;BME280;41577;47.470;19.080;2023-09-30T00:51:07;100684.00;;;16.01;100.00
53868;BME280;41577;47.470;19.080;2023-09-30T00:51:19;100674.09;;;16.01;100.00
53868;BME280;41577;47.470;19.080;2023-09-30T00:51:32;100675.09;;;16.00;100.00
53868;BME280;41577;47.470;19.080;2023-09-30T00:51:44;100680.50;;;16.00;100.00
53868;BME280;41577;47.470;19.080;2023-09-30T00:51:59;100675.56;;;15.97;100.00
53868;BME280;41577;47.470;19.080;2023-09-30T00:52:12;100672.66;;;15.99;100.00
53868;BME280;41577;47.470;19.080;2023-09-30T00:52:23;100678.03;;;15.99;100.00
53868;BME280;41577;47.470;19.080;2023-09-30T00:52:36;100671.81;;;15.98;100.00
53868;BME280;41577;47.470;19.080;2023-09-30T00:52:49;100674.50;;;15.98;100.00
53868;BME280;41577;47.470;19.080;2023-09-30T00:53:02;100676.16;;;15.99;100.00
53868;BME280;41577;47.470;19.080;2023-09-30T00:53:13;100680.94;;;15.97;100.00
53868;BME280;41577;47.470;19.080;2023-09-30T00:53:26;100672.25;;;15.95;100.00
53868;BME280;41577;47.470;19.080;2023-09-30T00:53:38;100675.75;;;15.96;100.00
53868;BME280;41577;47.470;19.080;2023-09-30T00:53:51;100669.34;;;15.97;100.00
53868;BME280;41577;47.470;19.080;2023-09-30T00:54:04;100668.50;;;15.96;100.00
53868;BME280;41577;47.470;19.080;2023-09-30T00:54:16;100673.88;;;15.96;100.00
53868;BME280;41577;47.470;19.080;2023-09-30T00:54:29;100673.88;;;15.96;100.00
53868;BME280;41577;47.470;19.080;2023-09-30T00:54:41;100670.97;;;15.98;100.00
53868;BME280;41577;47.470;19.080;2023-09-30T00:54:53;100680.13;;;15.97;100.00
53868;BME280;41577;47.470;19.080;2023-09-30T00:55:06;100681.75;;;15.98;100.00
53868;BME280;41577;47.470;19.080;2023-09-30T00:55:20;100674.72;;;15.97;100.00
53868;BME280;41577;47.470;19.080;2023-09-30T00:55:32;100676.56;;;15.96;100.00
53868;BME280;41577;47.470;19.080;2023-09-30T00:55:44;100672.25;;;15.95;100.00
53868;BME280;41577;47.470;19.080;2023-09-30T00:55:56;100669.53;;;15.95;100.00
53868;BME280;41577;47.470;19.080;2023-09-30T00:56:10;100674.94;;;15.95;100.00
53868;BME280;41577;47.470;19.080;2023-09-30T00:56:25;100667.28;;;15.92;100.00
53868;BME280;41577;47.470;19.080;2023-09-30T00:56:43;100675.97;;;15.94;100.00
53868;BME280;41577;47.470;19.080;2023-09-30T00:56:56;100674.31;;;15.93;100.00
53868;BME280;41577;47.470;19.080;2023-09-30T00:57:08;100671.81;;;15.92;100.00
53868;BME280;41577;47.470;19.080;2023-09-30T00:57:20;100681.34;;;15.94;100.00
53868;BME280;41577;47.470;19.080;2023-09-30T00:57:33;100675.97;;;15.94;100.00
53868;BME280;41577;47.470;19.080;2023-09-30T00:57:46;100669.97;;;15.92;100.00
53868;BME280;41577;47.470;19.080;2023-09-30T00:57:58;100672.06;;;15.90;100.00
53868;BME280;41577;47.470;19.080;2023-09-30T00:58:09;100664.38;;;15.94;100.00
53868;BME280;41577;47.470;19.080;2023-09-30T00:58:22;100678.88;;;15.93;100.00
53868;BME280;41577;47.470;19.080;2023-09-30T00:58:35;100677.00;;;15.93;100.00
53868;BME280;41577;47.470;19.080;2023-09-30T00:58:48;100672.44;;;15.94;100.00
53868;BME280;41577;47.470;19.080;2023-09-30T00:59:00;100678.66;;;15.94;100.00
53868;BME280;41577;47.470;19.080;2023-09-30T00:59:13;100675.97;;;15.94;100.00
53868;BME280;41577;47.470;19.080;2023-09-30T00:59:25;100677.63;;;15.95;100.00
53868;BME280;41577;47.470;19.080;2023-09-30T00:59:37;100676.81;;;15.95;100.00
53868;BME280;41577;47.470;19.080;2023-09-30T00:59:50;100675.75;;;15.96;100.00
53868;BME280;41577;47.470;19.080;2023-09-30T01:00:02;100672.44;;;15.94;100.00
53868;BME280;41577;47.470;19.080;2023-09-30T01:00:15;100675.38;;;15.92;100.00
53868;BME280;41577;47.470;19.080;2023-09-30T01:00:28;100674.31;;;15.93;100.00
53868;BME280;41577;47.470;19.080;2023-09-30T01:00:40;100675.97;;;15.94;100.00
53868;BME280;41577;47.470;19.080;2023-09-30T01:00:53;100668.09;;;15.93;100.00
53868;BME280;41577;47.470;19.080;2023-09-30T01:01:05;100682.19;;;15.95;100.00
53868;BME280;41577;47.470;19.080;2023-09-30T01:01:18;100675.97;;;15.94;100.00
53868;BME280;41577;47.470;19.080;2023-09-30T01:01:29;100673.50;;;15.93;100.00
53868;BME280;41577;47.470;19.080;2023-09-30T01:01:42;100690.47;;;15.93;100.00
53868;BME280;41577;47.470;19.080;2023-09-30T01:01:56;100684.88;;;15.95;100.00
53868;BME280;41577;47.470;19.080;2023-09-30T01:02:10;100675.13;;;15.94;100.00
53868;BME280;41577;47.470;19.080;2023-09-30T01:02:22;100671.63;;;15.93;100.00
53868;BME280;41577;47.470;19.080;2023-09-30T01:02:34;100672.88;;;15.91;100.00
53868;BME280;41577;47.470;19.080;2023-09-30T01:02:46;100675.13;;;15.94;100.00
53868;BME280;41577;47.470;19.080;2023-09-30T01:02:58;100672.69;;;15.92;100.00
53868;BME280;41577;47.470;19.080;2023-09-30T01:03:10;100672.69;;;15.92;100.00
53868;BME280;41577;47.470;19.080;2023-09-30T01:03:23;100679.72;;;15.93;100.00